createdAt,value
2019-02-28T00:00:56.897Z,19.70
2019-02-28T00:01:56.866Z,21.10
2019-02-28T00:02:56.838Z,21.00
2019-02-28T00:03:58.059Z,18.80
2019-02-28T00:04:56.823Z,21.50
2019-02-28T00:05:56.827Z,19.50
2019-02-28T00:06:56.834Z,21.30
2019-02-28T00:07:56.788Z,20.70
2019-02-28T00:08:56.774Z,22.00
2019-02-28T00:09:57.411Z,21.20
2019-02-28T00:10:56.784Z,22.30
2019-02-28T00:11:56.748Z,22.70
2019-02-28T00:12:56.747Z,23.50
2019-02-28T00:13:56.746Z,21.80
2019-02-28T00:14:58.635Z,24.10
2019-02-28T00:15:56.712Z,21.80
2019-02-28T00:16:56.691Z,22.10
2019-02-28T00:17:56.686Z,22.20
2019-02-28T00:18:56.663Z,22.00
2019-02-28T00:19:58.014Z,24.40
2019-02-28T00:20:56.664Z,24.60
2019-02-28T00:21:56.631Z,25.10
2019-02-28T00:22:56.623Z,23.30
2019-02-28T00:23:57.449Z,25.80
2019-02-28T00:24:56.611Z,23.50
2019-02-28T00:25:56.621Z,25.10
2019-02-28T00:26:56.593Z,23.30
2019-02-28T00:27:56.579Z,25.80
2019-02-28T00:28:57.011Z,26.30
2019-02-28T00:29:56.569Z,23.70
2019-02-28T00:30:56.567Z,24.10
2019-02-28T00:31:56.527Z,24.30
2019-02-28T00:32:59.399Z,25.90
2019-02-28T00:33:56.521Z,23.80
2019-02-28T00:34:56.492Z,24.30
2019-02-28T00:35:56.506Z,24.60
2019-02-28T00:36:56.487Z,26.50
2019-02-28T00:37:57.373Z,25.90
2019-02-28T00:38:56.448Z,23.70
2019-02-28T00:39:56.453Z,25.60
2019-02-28T00:40:56.452Z,26.00
2019-02-28T00:41:56.427Z,26.60
2019-02-28T00:42:56.404Z,24.20
2019-02-28T00:43:57.111Z,24.60
2019-02-28T00:44:56.394Z,26.20
2019-02-28T00:45:56.400Z,29.00
2019-02-28T00:46:56.369Z,28.50
2019-02-28T00:47:56.350Z,29.80
2019-02-28T00:48:56.347Z,25.50
2019-02-28T00:49:56.702Z,25.70
2019-02-28T00:50:58.534Z,26.10
2019-02-28T00:51:56.324Z,29.10
2019-02-28T00:52:56.295Z,25.80
2019-02-28T00:53:56.292Z,30.40
2019-02-28T00:54:56.279Z,31.50
2019-02-28T00:55:56.296Z,28.70
2019-02-28T00:56:56.264Z,26.60
2019-02-28T00:57:56.263Z,29.30
2019-02-28T00:58:56.263Z,29.40
2019-02-28T00:59:56.228Z,28.30
2019-02-28T01:00:56.242Z,29.00
2019-02-28T01:01:56.200Z,28.10
2019-02-28T01:02:57.991Z,27.00
2019-02-28T01:03:58.070Z,28.80
2019-02-28T01:04:56.180Z,29.40
2019-02-28T01:05:56.179Z,28.10
2019-02-28T01:06:56.153Z,29.40
2019-02-28T01:07:56.139Z,29.10
2019-02-28T01:08:56.776Z,29.40
2019-02-28T01:09:56.115Z,31.00
2019-02-28T01:10:56.126Z,30.40
2019-02-28T01:11:56.348Z,30.00
2019-02-28T01:12:56.088Z,29.10
2019-02-28T01:13:58.106Z,29.30
2019-02-28T01:14:56.067Z,31.70
2019-02-28T01:15:56.071Z,30.50
2019-02-28T01:16:56.053Z,29.60
2019-02-28T01:17:57.204Z,32.50
2019-02-28T01:18:56.018Z,28.30
2019-02-28T01:19:56.015Z,30.10
2019-02-28T01:20:56.022Z,31.80
2019-02-28T01:21:56.295Z,32.10
2019-02-28T01:22:58.575Z,31.30
2019-02-28T01:23:55.973Z,31.50
2019-02-28T01:24:55.958Z,32.10
2019-02-28T01:25:55.944Z,28.60
2019-02-28T01:26:55.960Z,29.60
2019-02-28T01:27:55.929Z,32.20
2019-02-28T01:29:01.516Z,30.40
2019-02-28T01:29:55.915Z,33.30
2019-02-28T01:30:55.901Z,31.70
2019-02-28T01:31:55.910Z,34.30
2019-02-28T01:32:55.875Z,31.60
2019-02-28T01:33:56.042Z,33.00
2019-02-28T01:34:55.843Z,31.80
2019-02-28T01:35:55.838Z,33.80
2019-02-28T01:36:55.852Z,30.60
2019-02-28T01:37:55.816Z,30.80
2019-02-28T01:38:58.066Z,32.80
2019-02-28T01:39:55.807Z,35.40
2019-02-28T01:42:06.206Z,40.30
2019-02-28T01:43:07.111Z,33.70
2019-02-28T01:44:07.123Z,37.40
2019-02-28T01:45:09.880Z,32.50
2019-02-28T01:46:07.079Z,36.30
2019-02-28T01:47:07.103Z,36.90
2019-02-28T01:48:07.060Z,33.00
2019-02-28T01:49:07.040Z,33.40
2019-02-28T01:50:07.049Z,33.70
2019-02-28T01:51:07.031Z,37.10
2019-02-28T01:52:09.799Z,36.30
2019-02-28T01:53:07.008Z,35.30
2019-02-28T01:54:06.995Z,36.90
2019-02-28T01:55:06.992Z,34.30
2019-02-28T01:56:06.964Z,36.50
2019-02-28T01:57:08.964Z,35.00
2019-02-28T01:58:06.981Z,35.70
2019-02-28T01:59:06.935Z,36.20
2019-02-28T02:00:06.923Z,36.10
2019-02-28T02:01:06.914Z,36.70
2019-02-28T02:02:07.030Z,35.40
2019-02-28T02:03:09.540Z,36.00
2019-02-28T02:04:06.890Z,35.50
2019-02-28T02:05:06.865Z,32.90
2019-02-28T02:06:06.863Z,35.30
2019-02-28T02:07:06.849Z,35.50
2019-02-28T02:08:07.432Z,37.00
2019-02-28T02:09:08.102Z,36.40
2019-02-28T02:10:06.820Z,34.20
2019-02-28T02:11:06.804Z,34.30
2019-02-28T02:12:06.798Z,35.70
2019-02-28T02:13:06.806Z,37.80
2019-02-28T02:14:07.460Z,36.10
2019-02-28T02:15:06.761Z,36.70
2019-02-28T02:16:06.753Z,34.00
2019-02-28T02:17:06.744Z,35.50
2019-02-28T02:18:09.438Z,33.80
2019-02-28T02:19:06.732Z,33.10
2019-02-28T02:20:06.717Z,35.10
2019-02-28T02:21:06.701Z,36.40
2019-02-28T02:22:09.504Z,35.80
2019-02-28T02:23:06.689Z,33.90
2019-02-28T02:24:06.693Z,33.40
2019-02-28T02:25:06.655Z,35.80
2019-02-28T02:26:08.420Z,32.50
2019-02-28T02:27:06.640Z,37.20
2019-02-28T02:28:06.647Z,35.40
2019-02-28T02:29:06.618Z,37.60
2019-02-28T02:30:13.354Z,34.10
2019-02-28T02:31:06.581Z,36.80
2019-02-28T02:32:06.598Z,37.30
2019-02-28T02:33:13.635Z,37.30
2019-02-28T02:34:06.575Z,35.40
2019-02-28T02:35:08.328Z,35.80
2019-02-28T02:36:06.534Z,37.40
2019-02-28T02:37:06.523Z,36.20
2019-02-28T02:38:06.528Z,36.90
2019-02-28T02:39:06.503Z,34.30
2019-02-28T02:40:06.493Z,36.40
2019-02-28T02:41:06.478Z,36.20
2019-02-28T02:42:11.323Z,36.30
2019-02-28T02:43:06.464Z,36.80
2019-02-28T02:44:06.464Z,36.20
2019-02-28T02:45:06.747Z,36.00
2019-02-28T02:46:06.436Z,37.50
2019-02-28T02:47:06.419Z,36.20
2019-02-28T02:48:06.867Z,35.00
2019-02-28T02:49:06.432Z,35.30
2019-02-28T02:50:06.387Z,35.40
2019-02-28T02:51:10.638Z,36.30
2019-02-28T02:52:06.370Z,34.50
2019-02-28T02:53:07.249Z,37.30
2019-02-28T02:54:06.364Z,38.80
2019-02-28T02:55:06.339Z,39.00
2019-02-28T02:56:06.329Z,38.20
2019-02-28T02:57:06.300Z,35.60
2019-02-28T02:58:06.285Z,36.10
2019-02-28T02:59:06.314Z,39.00
2019-02-28T03:00:06.275Z,34.50
2019-02-28T03:01:06.273Z,35.90
2019-02-28T03:02:06.274Z,37.30
2019-02-28T03:03:07.622Z,38.20
2019-02-28T03:04:06.239Z,36.40
2019-02-28T03:05:06.225Z,37.60
2019-02-28T03:06:12.246Z,35.60
2019-02-28T03:07:06.200Z,37.80
2019-02-28T03:08:06.197Z,36.50
2019-02-28T03:09:09.916Z,39.50
2019-02-28T03:10:06.176Z,34.90
2019-02-28T03:11:06.195Z,36.00
2019-02-28T03:12:06.137Z,39.80
2019-02-28T03:13:06.519Z,38.10
2019-02-28T03:14:06.150Z,37.20
2019-02-28T03:15:06.106Z,36.80
2019-02-28T03:16:06.098Z,38.70
2019-02-28T03:17:11.474Z,38.80
2019-02-28T03:18:06.071Z,37.10
2019-02-28T03:19:06.093Z,38.90
2019-02-28T03:20:07.437Z,40.30
2019-02-28T03:21:06.048Z,37.80
2019-02-28T03:22:06.028Z,37.90
2019-02-28T03:23:06.012Z,36.60
2019-02-28T03:24:06.004Z,35.90
2019-02-28T03:25:06.016Z,38.80
2019-02-28T03:26:07.145Z,39.40
2019-02-28T03:27:05.973Z,36.70
2019-02-28T03:28:05.971Z,38.20
2019-02-28T03:29:07.890Z,36.00
2019-02-28T03:30:05.955Z,36.70
2019-02-28T03:31:14.234Z,40.80
2019-02-28T03:32:05.933Z,39.50
2019-02-28T03:33:05.914Z,39.50
2019-02-28T03:34:12.915Z,34.50
2019-02-28T03:35:05.910Z,40.70
2019-02-28T03:36:05.883Z,40.50
2019-02-28T03:37:05.885Z,37.60
2019-02-28T03:38:10.576Z,39.40
2019-02-28T03:39:05.858Z,38.70
2019-02-28T03:40:05.855Z,39.10
2019-02-28T03:41:05.822Z,34.30
2019-02-28T03:43:15.056Z,35.00
2019-02-28T03:44:21.313Z,37.10
2019-02-28T03:45:16.022Z,33.90
2019-02-28T03:46:15.982Z,40.10
2019-02-28T03:47:22.675Z,36.40
2019-02-28T03:48:15.994Z,34.90
2019-02-28T03:49:15.954Z,33.80
2019-02-28T03:50:15.970Z,36.70
2019-02-28T03:51:15.958Z,36.00
2019-02-28T03:52:15.915Z,35.70
2019-02-28T03:53:19.580Z,36.70
2019-02-28T03:54:15.904Z,36.60
2019-02-28T03:55:15.906Z,36.40
2019-02-28T03:56:16.053Z,37.70
2019-02-28T03:57:15.861Z,36.30
2019-02-28T03:58:15.860Z,34.90
2019-02-28T03:59:18.954Z,35.70
2019-02-28T04:00:15.840Z,35.80
2019-02-28T04:01:15.818Z,34.50
2019-02-28T04:02:21.074Z,39.00
2019-02-28T04:03:15.818Z,39.90
2019-02-28T04:04:15.790Z,39.60
2019-02-28T04:05:15.802Z,37.10
2019-02-28T04:06:15.771Z,40.10
2019-02-28T04:07:16.960Z,40.70
2019-02-28T04:08:15.739Z,45.40
2019-02-28T04:09:15.756Z,41.30
2019-02-28T04:10:16.659Z,43.40
2019-02-28T04:11:15.708Z,42.90
2019-02-28T04:12:15.702Z,46.40
2019-02-28T04:13:19.280Z,48.00
2019-02-28T04:14:15.716Z,47.40
2019-02-28T04:15:15.693Z,43.10
2019-02-28T04:16:15.673Z,45.60
2019-02-28T04:17:15.690Z,43.00
2019-02-28T04:18:15.641Z,42.20
2019-02-28T04:19:21.334Z,43.60
2019-02-28T04:20:15.636Z,43.80
2019-02-28T04:21:15.615Z,44.50
2019-02-28T04:22:19.411Z,45.30
2019-02-28T04:23:15.582Z,45.60
2019-02-28T04:24:15.574Z,42.60
2019-02-28T04:25:23.048Z,47.90
2019-02-28T04:26:15.577Z,45.60
2019-02-28T04:27:15.541Z,45.30
2019-02-28T04:28:18.564Z,44.20
2019-02-28T04:29:15.529Z,46.10
2019-02-28T04:30:15.533Z,43.30
2019-02-28T04:31:20.020Z,44.60
2019-02-28T04:32:15.495Z,49.00
2019-02-28T04:33:15.481Z,48.30
2019-02-28T04:34:15.492Z,46.80
2019-02-28T04:35:15.586Z,49.30
2019-02-28T04:36:15.455Z,51.10
2019-02-28T04:37:15.453Z,50.30
2019-02-28T04:38:20.521Z,48.60
2019-02-28T04:39:15.416Z,47.80
2019-02-28T04:40:15.416Z,49.40
2019-02-28T04:41:15.407Z,48.80
2019-02-28T04:42:15.378Z,50.40
2019-02-28T04:43:15.371Z,48.50
2019-02-28T04:44:18.216Z,51.10
2019-02-28T04:45:15.368Z,49.70
2019-02-28T04:46:15.363Z,48.10
2019-02-28T04:47:15.342Z,50.50
2019-02-28T04:48:15.338Z,51.90
2019-02-28T04:49:15.303Z,47.10
2019-02-28T04:50:15.323Z,50.60
2019-02-28T04:51:15.291Z,51.50
2019-02-28T04:52:15.280Z,47.30
2019-02-28T04:53:15.264Z,47.70
2019-02-28T04:54:15.245Z,49.60
2019-02-28T04:55:15.252Z,50.70
2019-02-28T04:56:15.253Z,49.00
2019-02-28T04:57:17.299Z,52.10
2019-02-28T04:58:15.212Z,51.70
2019-02-28T04:59:15.199Z,52.20
2019-02-28T05:00:15.197Z,46.40
2019-02-28T05:01:15.166Z,50.10
2019-02-28T05:02:19.702Z,50.80
2019-02-28T05:03:15.147Z,49.90
2019-02-28T05:04:15.142Z,49.70
2019-02-28T05:05:15.157Z,48.70
2019-02-28T05:06:15.132Z,47.80
2019-02-28T05:07:15.112Z,47.80
2019-02-28T05:08:15.101Z,48.30
2019-02-28T05:09:15.252Z,50.70
2019-02-28T05:10:15.088Z,48.50
2019-02-28T05:11:15.068Z,54.10
2019-02-28T05:12:15.052Z,49.70
2019-02-28T05:13:15.069Z,48.20
2019-02-28T05:14:15.033Z,51.70
2019-02-28T05:15:15.022Z,51.00
2019-02-28T05:16:15.035Z,51.50
2019-02-28T05:17:14.996Z,48.30
2019-02-28T05:18:14.988Z,48.50
2019-02-28T05:19:14.975Z,49.90
2019-02-28T05:20:14.973Z,50.40
2019-02-28T05:21:16.470Z,54.00
2019-02-28T05:22:14.950Z,49.80
2019-02-28T05:23:14.940Z,50.90
2019-02-28T05:24:14.933Z,53.50
2019-02-28T05:25:18.695Z,59.40
2019-02-28T05:26:14.926Z,57.60
2019-02-28T05:27:14.901Z,62.50
2019-02-28T05:28:14.874Z,59.30
2019-02-28T05:29:14.880Z,59.40
2019-02-28T05:30:17.981Z,62.80
2019-02-28T05:31:14.865Z,53.50
2019-02-28T05:32:14.835Z,53.90
2019-02-28T05:33:14.828Z,52.80
2019-02-28T05:34:16.040Z,54.90
2019-02-28T05:35:14.818Z,59.90
2019-02-28T05:36:14.814Z,66.10
2019-02-28T05:37:14.788Z,61.50
2019-02-28T05:38:14.779Z,65.10
2019-02-28T05:39:14.767Z,62.60
2019-02-28T05:40:14.745Z,61.90
2019-02-28T05:41:15.297Z,60.30
2019-02-28T05:42:14.726Z,63.30
2019-02-28T05:44:23.915Z,60.40
2019-02-28T05:45:24.894Z,73.40
2019-02-28T05:46:24.919Z,68.70
2019-02-28T05:47:26.053Z,71.20
2019-02-28T05:48:24.877Z,73.20
2019-02-28T05:49:24.881Z,72.30
2019-02-28T05:50:24.854Z,69.70
2019-02-28T05:51:25.752Z,68.40
2019-02-28T05:52:24.822Z,67.30
2019-02-28T05:53:24.811Z,68.90
2019-02-28T05:54:24.819Z,67.30
2019-02-28T05:55:25.813Z,62.60
2019-02-28T05:56:24.778Z,65.50
2019-02-28T05:57:24.791Z,68.10
2019-02-28T05:58:24.769Z,62.20
2019-02-28T05:59:27.354Z,62.60
2019-02-28T06:00:24.739Z,65.10
2019-02-28T06:01:24.736Z,64.70
2019-02-28T06:02:25.650Z,63.70
2019-02-28T06:03:24.715Z,64.20
2019-02-28T06:04:24.725Z,64.30
2019-02-28T06:05:24.680Z,65.00
2019-02-28T06:06:24.682Z,71.70
2019-02-28T06:07:25.926Z,71.30
2019-02-28T06:08:24.685Z,64.20
2019-02-28T06:09:24.651Z,65.80
2019-02-28T06:10:24.885Z,64.00
2019-02-28T06:11:24.622Z,70.20
2019-02-28T06:12:24.626Z,67.60
2019-02-28T06:13:24.623Z,65.00
2019-02-28T06:14:27.595Z,68.20
2019-02-28T06:15:24.573Z,66.90
2019-02-28T06:16:24.561Z,67.60
2019-02-28T06:17:24.553Z,63.60
2019-02-28T06:18:27.010Z,69.00
2019-02-28T06:19:24.543Z,67.80
2019-02-28T06:20:24.530Z,64.00
2019-02-28T06:21:24.514Z,65.00
2019-02-28T06:22:24.496Z,63.00
2019-02-28T06:23:24.514Z,68.10
2019-02-28T06:24:24.485Z,66.20
2019-02-28T06:25:25.683Z,71.40
2019-02-28T06:26:24.459Z,67.90
2019-02-28T06:27:24.452Z,66.80
2019-02-28T06:28:27.644Z,69.80
2019-02-28T06:29:24.485Z,70.50
2019-02-28T06:30:24.425Z,70.30
2019-02-28T06:31:24.409Z,70.60
2019-02-28T06:32:24.730Z,71.30
2019-02-28T06:33:24.415Z,73.10
2019-02-28T06:34:24.372Z,67.90
2019-02-28T06:35:24.364Z,71.20
2019-02-28T06:36:25.709Z,73.90
2019-02-28T06:37:24.347Z,72.70
2019-02-28T06:38:24.366Z,73.70
2019-02-28T06:39:26.884Z,71.30
2019-02-28T06:40:24.300Z,74.00
2019-02-28T06:41:24.362Z,70.70
2019-02-28T06:42:25.156Z,71.80
2019-02-28T06:43:24.330Z,78.20
2019-02-28T06:44:27.010Z,73.60
2019-02-28T06:45:24.321Z,72.40
2019-02-28T06:46:24.384Z,72.70
2019-02-28T06:47:24.239Z,70.90
2019-02-28T06:48:26.613Z,72.60
2019-02-28T06:49:25.246Z,71.90
2019-02-28T06:50:24.209Z,72.80
2019-02-28T06:51:24.219Z,73.80
2019-02-28T06:52:25.266Z,71.10
2019-02-28T06:53:24.207Z,72.20
2019-02-28T06:54:24.246Z,75.50
2019-02-28T06:55:24.147Z,72.70
2019-02-28T06:56:24.187Z,71.00
2019-02-28T06:57:26.857Z,70.30
2019-02-28T06:58:24.126Z,74.10
2019-02-28T06:59:24.108Z,72.80
2019-02-28T07:00:24.110Z,74.00
2019-02-28T07:01:24.109Z,71.00
2019-02-28T07:02:24.072Z,69.90
2019-02-28T07:03:24.075Z,67.80
2019-02-28T07:04:24.044Z,73.20
2019-02-28T07:05:25.733Z,74.40
2019-02-28T07:06:24.054Z,74.20
2019-02-28T07:07:24.028Z,74.70
2019-02-28T07:08:24.685Z,72.50
2019-02-28T07:09:23.996Z,75.70
2019-02-28T07:10:23.992Z,74.70
2019-02-28T07:11:24.007Z,72.00
2019-02-28T07:12:29.103Z,71.70
2019-02-28T07:13:23.984Z,68.80
2019-02-28T07:14:23.976Z,72.00
2019-02-28T07:15:24.962Z,72.80
2019-02-28T07:16:23.913Z,73.60
2019-02-28T07:17:23.921Z,75.80
2019-02-28T07:18:23.891Z,76.20
2019-02-28T07:19:26.215Z,72.90
2019-02-28T07:20:23.902Z,71.60
2019-02-28T07:21:23.869Z,76.40
2019-02-28T07:22:23.887Z,72.90
2019-02-28T07:23:26.785Z,72.30
2019-02-28T07:24:23.826Z,73.30
2019-02-28T07:25:23.842Z,75.90
2019-02-28T07:26:23.810Z,71.90
2019-02-28T07:27:26.686Z,71.60
2019-02-28T07:28:23.784Z,76.10
2019-02-28T07:29:23.797Z,74.20
2019-02-28T07:30:23.787Z,72.90
2019-02-28T07:31:24.688Z,75.40
2019-02-28T07:32:23.770Z,75.40
2019-02-28T07:33:23.733Z,76.40
2019-02-28T07:34:24.026Z,74.80
2019-02-28T07:35:23.732Z,76.50
2019-02-28T07:36:23.737Z,75.90
2019-02-28T07:37:23.707Z,77.00
2019-02-28T07:38:25.548Z,78.00
2019-02-28T07:39:23.689Z,77.60
2019-02-28T07:40:23.668Z,75.30
2019-02-28T07:41:26.772Z,78.60
2019-02-28T07:42:23.638Z,77.60
2019-02-28T07:43:23.680Z,72.80
2019-02-28T07:45:33.303Z,87.20
2019-02-28T07:46:33.807Z,78.70
2019-02-28T07:47:33.805Z,76.50
2019-02-28T07:48:33.920Z,76.90
2019-02-28T07:49:36.684Z,80.40
2019-02-28T07:50:33.801Z,76.60
2019-02-28T07:51:33.759Z,77.40
2019-02-28T07:52:33.854Z,83.90
2019-02-28T07:53:33.721Z,77.30
2019-02-28T07:54:33.717Z,74.70
2019-02-28T07:55:33.733Z,81.80
2019-02-28T07:56:33.689Z,74.60
2019-02-28T07:57:33.673Z,73.20
2019-02-28T07:58:33.723Z,75.00
2019-02-28T07:59:33.666Z,77.00
2019-02-28T08:00:33.678Z,78.40
2019-02-28T08:01:33.644Z,72.10
2019-02-28T08:02:35.619Z,70.80
2019-02-28T08:03:33.623Z,80.70
2019-02-28T08:04:33.616Z,77.90
2019-02-28T08:05:33.656Z,79.30
2019-02-28T08:06:36.270Z,79.90
2019-02-28T08:07:33.589Z,74.50
2019-02-28T08:08:33.570Z,74.80
2019-02-28T08:09:36.692Z,77.70
2019-02-28T08:10:33.559Z,70.70
2019-02-28T08:11:33.545Z,76.20
2019-02-28T08:12:33.525Z,76.60
2019-02-28T08:13:34.617Z,68.60
2019-02-28T08:14:33.505Z,71.80
2019-02-28T08:15:33.525Z,73.00
2019-02-28T08:16:34.001Z,73.10
2019-02-28T08:17:35.333Z,72.00
2019-02-28T08:18:33.459Z,74.80
2019-02-28T08:19:33.449Z,74.50
2019-02-28T08:20:34.011Z,71.20
2019-02-28T08:21:33.440Z,72.00
2019-02-28T08:22:33.428Z,70.30
2019-02-28T08:23:33.396Z,74.10
2019-02-28T08:24:35.870Z,68.70
2019-02-28T08:25:33.637Z,72.80
2019-02-28T08:26:33.433Z,71.20
2019-02-28T08:27:33.362Z,79.20
2019-02-28T08:28:36.710Z,72.90
2019-02-28T08:29:33.334Z,73.80
2019-02-28T08:30:33.364Z,73.60
2019-02-28T08:31:33.317Z,75.30
2019-02-28T08:32:33.994Z,75.30
2019-02-28T08:33:33.313Z,75.30
2019-02-28T08:34:33.281Z,74.40
2019-02-28T08:35:34.941Z,72.60
2019-02-28T08:36:33.304Z,71.50
2019-02-28T08:37:33.250Z,73.60
2019-02-28T08:38:34.290Z,71.50
2019-02-28T08:39:33.227Z,72.90
2019-02-28T08:40:33.246Z,76.40
2019-02-28T08:41:33.218Z,73.20
2019-02-28T08:42:38.462Z,76.20
2019-02-28T08:43:33.207Z,77.40
2019-02-28T08:44:33.184Z,74.50
2019-02-28T08:45:34.439Z,74.20
2019-02-28T08:46:33.155Z,73.50
2019-02-28T08:47:33.143Z,71.00
2019-02-28T08:48:34.927Z,71.60
2019-02-28T08:49:33.123Z,74.40
2019-02-28T08:50:33.222Z,71.20
2019-02-28T08:51:34.155Z,72.60
2019-02-28T08:52:33.081Z,75.10
2019-02-28T08:53:33.076Z,75.20
2019-02-28T08:54:33.122Z,73.00
2019-02-28T08:55:33.142Z,75.00
2019-02-28T08:56:33.327Z,72.80
2019-02-28T08:57:33.027Z,73.30
2019-02-28T08:58:33.021Z,79.30
2019-02-28T08:59:33.005Z,74.30
2019-02-28T09:00:33.492Z,75.10
2019-02-28T09:01:32.990Z,71.80
2019-02-28T09:02:32.998Z,76.10
2019-02-28T09:03:32.989Z,73.00
2019-02-28T09:04:41.044Z,73.60
2019-02-28T09:05:32.946Z,70.80
2019-02-28T09:06:32.981Z,73.60
2019-02-28T09:07:32.916Z,75.80
2019-02-28T09:08:32.905Z,76.40
2019-02-28T09:09:34.471Z,73.50
2019-02-28T09:10:32.892Z,74.70
2019-02-28T09:11:32.907Z,71.10
2019-02-28T09:12:33.352Z,71.60
2019-02-28T09:13:32.859Z,73.80
2019-02-28T09:14:33.414Z,73.60
2019-02-28T09:15:32.899Z,72.30
2019-02-28T09:16:32.870Z,75.90
2019-02-28T09:17:33.559Z,77.10
2019-02-28T09:18:32.852Z,74.20
2019-02-28T09:19:36.141Z,73.60
2019-02-28T09:20:32.790Z,71.40
2019-02-28T09:21:32.824Z,72.70
2019-02-28T09:22:32.794Z,74.80
2019-02-28T09:23:34.487Z,76.10
2019-02-28T09:24:32.816Z,73.10
2019-02-28T09:25:32.768Z,78.10
2019-02-28T09:26:32.767Z,74.50
2019-02-28T09:27:35.350Z,73.60
2019-02-28T09:28:32.722Z,70.00
2019-02-28T09:29:32.731Z,76.10
2019-02-28T09:30:32.674Z,71.00
2019-02-28T09:31:32.683Z,72.70
2019-02-28T09:32:32.662Z,76.10
2019-02-28T09:33:32.637Z,71.80
2019-02-28T09:34:32.640Z,74.10
2019-02-28T09:35:32.638Z,70.90
2019-02-28T09:36:32.619Z,69.50
2019-02-28T09:37:32.603Z,71.20
2019-02-28T09:38:32.591Z,74.80
2019-02-28T09:39:32.583Z,70.40
2019-02-28T09:40:32.565Z,73.00
2019-02-28T09:41:32.587Z,70.40
2019-02-28T09:42:32.553Z,71.50
2019-02-28T09:43:32.556Z,76.50
2019-02-28T09:44:32.555Z,75.00
2019-02-28T09:46:42.348Z,68.20
2019-02-28T09:47:43.308Z,73.50
2019-02-28T09:48:43.293Z,72.80
2019-02-28T09:49:44.264Z,74.90
2019-02-28T09:50:43.280Z,72.20
2019-02-28T09:51:43.313Z,76.50
2019-02-28T09:52:43.254Z,74.00
2019-02-28T09:53:43.245Z,72.40
2019-02-28T09:54:43.229Z,78.00
2019-02-28T09:55:43.223Z,70.40
2019-02-28T09:56:44.584Z,73.10
2019-02-28T09:57:43.224Z,75.30
2019-02-28T09:58:43.184Z,72.70
2019-02-28T09:59:43.171Z,72.10
2019-02-28T10:00:46.193Z,74.70
2019-02-28T10:01:43.176Z,70.20
2019-02-28T10:02:43.988Z,73.50
2019-02-28T10:03:43.157Z,69.50
2019-02-28T10:04:43.199Z,71.90
2019-02-28T10:05:43.286Z,69.50
2019-02-28T10:06:43.998Z,76.30
2019-02-28T10:07:43.199Z,72.20
2019-02-28T10:08:43.082Z,72.10
2019-02-28T10:09:44.198Z,70.30
2019-02-28T10:10:43.132Z,75.10
2019-02-28T10:11:43.056Z,73.80
2019-02-28T10:12:43.208Z,75.70
2019-02-28T10:13:43.042Z,74.30
2019-02-28T10:14:43.017Z,75.00
2019-02-28T10:15:43.017Z,74.50
2019-02-28T10:16:43.066Z,73.60
2019-02-28T10:17:43.017Z,76.10
2019-02-28T10:18:42.968Z,79.90
2019-02-28T10:19:45.776Z,77.90
2019-02-28T10:20:42.954Z,72.20
2019-02-28T10:21:42.935Z,78.00
2019-02-28T10:22:44.307Z,78.60
2019-02-28T10:23:43.460Z,74.90
2019-02-28T10:24:43.013Z,78.10
2019-02-28T10:25:43.749Z,76.90
2019-02-28T10:26:42.880Z,81.10
2019-02-28T10:27:42.902Z,75.80
2019-02-28T10:28:43.325Z,75.80
2019-02-28T10:29:42.842Z,80.90
2019-02-28T10:30:42.836Z,77.60
2019-02-28T10:31:42.870Z,79.40
2019-02-28T10:32:43.319Z,74.50
2019-02-28T10:33:42.893Z,77.80
2019-02-28T10:34:42.790Z,76.00
2019-02-28T10:35:42.792Z,76.40
2019-02-28T10:36:47.389Z,77.20
2019-02-28T10:37:42.786Z,76.90
2019-02-28T10:38:42.755Z,77.30
2019-02-28T10:39:43.206Z,78.90
2019-02-28T10:40:42.734Z,76.50
2019-02-28T10:41:42.743Z,75.10
2019-02-28T10:42:42.755Z,79.70
2019-02-28T10:43:42.701Z,74.60
2019-02-28T10:44:42.682Z,74.60
2019-02-28T10:45:42.915Z,77.90
2019-02-28T10:46:42.680Z,79.80
2019-02-28T10:47:42.664Z,76.90
2019-02-28T10:48:50.788Z,76.20
2019-02-28T10:49:42.638Z,78.60
2019-02-28T10:50:42.640Z,80.40
2019-02-28T10:51:44.656Z,75.40
2019-02-28T10:52:42.619Z,76.00
2019-02-28T10:53:42.583Z,73.50
2019-02-28T10:54:42.584Z,78.80
2019-02-28T10:55:42.612Z,76.90
2019-02-28T10:56:42.560Z,75.90
2019-02-28T10:57:42.564Z,76.50
2019-02-28T10:58:42.571Z,77.80
2019-02-28T10:59:42.528Z,78.90
2019-02-28T11:00:42.517Z,80.00
2019-02-28T11:01:42.735Z,80.80
2019-02-28T11:02:42.521Z,76.80
2019-02-28T11:03:42.479Z,76.60
2019-02-28T11:04:43.708Z,81.30
2019-02-28T11:05:42.461Z,81.30
2019-02-28T11:06:42.435Z,80.40
2019-02-28T11:07:42.444Z,77.90
2019-02-28T11:08:44.439Z,78.90
2019-02-28T11:09:42.424Z,77.20
2019-02-28T11:10:42.413Z,77.80
2019-02-28T11:11:45.398Z,85.50
2019-02-28T11:12:42.398Z,80.30
2019-02-28T11:13:42.471Z,76.20
2019-02-28T11:14:42.379Z,77.90
2019-02-28T11:15:42.369Z,82.70
2019-02-28T11:16:42.911Z,77.80
2019-02-28T11:17:42.422Z,77.80
2019-02-28T11:18:42.796Z,78.10
2019-02-28T11:19:42.297Z,79.60
2019-02-28T11:20:42.286Z,79.20
2019-02-28T11:21:42.277Z,77.40
2019-02-28T11:22:42.300Z,76.40
2019-02-28T11:23:42.324Z,79.70
2019-02-28T11:24:42.459Z,81.00
2019-02-28T11:25:42.239Z,78.80
2019-02-28T11:26:44.713Z,76.40
2019-02-28T11:27:42.276Z,76.60
2019-02-28T11:28:42.208Z,78.80
2019-02-28T11:29:42.188Z,73.70
2019-02-28T11:30:44.763Z,80.00
2019-02-28T11:31:42.178Z,74.20
2019-02-28T11:32:42.179Z,80.00
2019-02-28T11:33:42.160Z,77.50
2019-02-28T11:34:42.145Z,75.50
2019-02-28T11:35:42.132Z,78.00
2019-02-28T11:36:42.122Z,82.80
2019-02-28T11:37:42.311Z,79.50
2019-02-28T11:38:42.241Z,75.90
2019-02-28T11:39:42.082Z,78.00
2019-02-28T11:40:43.700Z,77.90
2019-02-28T11:41:42.057Z,81.00
2019-02-28T11:42:42.076Z,76.80
2019-02-28T11:43:42.055Z,80.90
2019-02-28T11:44:43.553Z,74.90
2019-02-28T11:45:42.027Z,77.80
2019-02-28T11:47:51.226Z,69.40
2019-02-28T11:48:53.940Z,78.40
2019-02-28T11:49:53.842Z,77.60
2019-02-28T11:50:52.154Z,76.40
2019-02-28T11:51:53.161Z,75.40
2019-02-28T11:52:52.166Z,79.90
2019-02-28T11:53:52.146Z,75.70
2019-02-28T11:54:52.139Z,74.30
2019-02-28T11:55:53.595Z,76.80
2019-02-28T11:56:52.169Z,77.40
2019-02-28T11:57:52.119Z,77.30
2019-02-28T11:58:52.664Z,75.40
2019-02-28T11:59:52.076Z,76.60
2019-02-28T12:00:52.058Z,76.90
2019-02-28T12:01:52.047Z,77.50
2019-02-28T12:02:53.567Z,71.20
2019-02-28T12:03:52.036Z,74.80
2019-02-28T12:04:52.083Z,76.30
2019-02-28T12:05:52.007Z,77.50
2019-02-28T12:06:52.006Z,76.30
2019-02-28T12:07:52.248Z,73.10
2019-02-28T12:08:52.022Z,75.60
2019-02-28T12:09:54.785Z,80.40
2019-02-28T12:10:51.949Z,78.10
2019-02-28T12:11:51.924Z,75.60
2019-02-28T12:12:51.934Z,71.10
2019-02-28T12:13:55.118Z,75.60
2019-02-28T12:14:51.902Z,73.90
2019-02-28T12:15:51.894Z,72.90
2019-02-28T12:16:53.610Z,74.50
2019-02-28T12:17:51.877Z,71.80
2019-02-28T12:18:51.881Z,73.10
2019-02-28T12:19:51.856Z,75.00
2019-02-28T12:20:51.833Z,70.30
2019-02-28T12:21:51.818Z,74.00
2019-02-28T12:22:51.808Z,69.30
2019-02-28T12:23:54.309Z,73.20
2019-02-28T12:24:51.798Z,74.30
2019-02-28T12:25:51.769Z,71.20
2019-02-28T12:26:52.793Z,72.80
2019-02-28T12:27:51.763Z,70.50
2019-02-28T12:28:51.782Z,72.10
2019-02-28T12:29:51.745Z,71.80
2019-02-28T12:30:51.724Z,72.10
2019-02-28T12:31:51.707Z,73.10
2019-02-28T12:32:52.596Z,71.90
2019-02-28T12:33:53.346Z,73.50
2019-02-28T12:34:51.677Z,69.50
2019-02-28T12:35:51.666Z,71.20
2019-02-28T12:36:51.661Z,71.90
2019-02-28T12:37:53.986Z,73.10
2019-02-28T12:38:51.649Z,71.30
2019-02-28T12:39:51.634Z,71.90
2019-02-28T12:40:51.607Z,70.10
2019-02-28T12:41:51.599Z,72.30
2019-02-28T12:42:51.586Z,72.80
2019-02-28T12:43:51.614Z,71.70
2019-02-28T12:44:51.581Z,74.30
2019-02-28T12:45:53.507Z,75.90
2019-02-28T12:46:51.556Z,73.50
2019-02-28T12:47:51.539Z,73.00
2019-02-28T12:48:51.552Z,73.90
2019-02-28T12:49:54.337Z,77.80
2019-02-28T12:50:51.522Z,78.30
2019-02-28T12:51:51.495Z,74.60
2019-02-28T12:52:51.484Z,75.00
2019-02-28T12:53:51.480Z,72.40
2019-02-28T12:54:51.456Z,74.20
2019-02-28T12:55:51.439Z,74.30
2019-02-28T12:56:51.452Z,74.30
2019-02-28T12:57:51.738Z,73.20
2019-02-28T12:58:51.456Z,75.20
2019-02-28T12:59:51.426Z,76.70